Arctic Queen — LG9802 — position and weather

sailwx.info

Track history (hours):
 
Tides and Currents Weather Stations Pressure Air Temp Water Temp Dewpoint Dewpoint Depression Visibility Wind Speed Wind Dir Waves Ship Positions

Arctic Queen

Last reported at 2017-Nov-16 09:05 UTC. Time now 2017-Dec-14 06:31 UTC.
Position N 70°01' E 020°31'.
Warning: this ship's position is 27 days out of date.

Length 12 m.

Type: Pleasure craft. MMSI: 257029390.

Date/timePositionNaut miles runAvg speedWind from/ knotsBaromVisibWave heightAir tempDewpointWater temp
2017-Nov-16 09:05N 70°01' E 020°31'122.0
2017-Nov-16 09:00N 70°00' E 020°27'1121.4
2017-Nov-16 08:31N 69°55' E 019°59'1121.6
2017-Nov-16 07:59N 69°49' E 019°32'1021.5
2017-Nov-16 07:30N 69°44' E 019°06'6 0.6
2017-Nov-15 21:42N 69°39' E 018°58'0 2.1
2017-Nov-15 21:30N 69°39' E 018°59'3 6.5
2017-Nov-15 21:00N 69°42' E 019°02'2 3.7
2017-Nov-15 20:28N 69°44' E 019°04'0 1.0
2017-Nov-15 20:00N 69°44' E 019°05'1 2.8
2017-Nov-15 19:31N 69°42' E 019°04'2 2.9
2017-Nov-15 19:00N 69°41' E 019°02'2 3.3
2017-Nov-15 18:29N 69°40' E 018°60'1 1.8
2017-Nov-15 18:00N 69°39' E 018°58'0 0.0
2017-Nov-15 12:27N 69°39' E 018°58'3 5.8
2017-Nov-15 12:00N 69°37' E 018°52'2 3.8
2017-Nov-15 11:30N 69°39' E 018°49'1 1.7
2017-Nov-15 10:58N 69°39' E 018°46'2 3.4
2017-Nov-15 10:30N 69°39' E 018°50'2 3.3
2017-Nov-15 10:00N 69°40' E 018°46'4 8.4
2017-Nov-15 09:30N 69°38' E 018°55'2 2.9
2017-Nov-15 08:58N 69°39' E 018°58'0 0.0
2017-Nov-14 13:19N 69°39' E 018°58'3 9.2
2017-Nov-14 13:00N 69°42' E 019°01'510.4
2017-Nov-14 12:30N 69°47' E 019°03'7 6.2
2017-Nov-14 11:27N 69°52' E 018°52'4 8.6
2017-Nov-14 10:58N 69°54' E 018°41'0 0.0
2017-Nov-14 10:28N 69°54' E 018°41'0 0.0
2017-Nov-14 09:57N 69°54' E 018°41'0 1.1
2017-Nov-14 09:30N 69°53' E 018°41'611.2
2017-Nov-14 09:00N 69°51' E 018°55'917.1
2017-Nov-14 08:29N 69°42' E 019°02'4 7.3
2017-Nov-14 07:59N 69°39' E 018°58'0 0.0
2017-Nov-12 14:21N 69°39' E 018°58'3 8.0
2017-Nov-12 13:59N 69°42' E 019°01'2 4.4
2017-Nov-12 13:30N 69°44' E 019°04'1020.6
2017-Nov-12 13:00N 69°49' E 019°29'1121.1
2017-Nov-12 12:30N 69°54' E 019°56'1021.1
2017-Nov-12 12:00N 69°60' E 020°22'1121.2
2017-Nov-12 11:29N 70°03' E 020°52'5 8.8
2017-Nov-12 10:54N 70°00' E 021°04'1 3.6
2017-Nov-12 10:30N 70°01' E 021°03'4 8.0
2017-Nov-12 10:00N 70°03' E 020°53'1121.0
2017-Nov-12 09:29N 69°60' E 020°23'1021.1
2017-Nov-12 09:00N 69°55' E 019°57'1121.5
2017-Nov-12 08:29N 69°49' E 019°29'1021.3
2017-Nov-12 08:00N 69°43' E 019°04'5 9.6
2017-Nov-12 07:29N 69°39' E 018°58'0 0.0
2017-Nov-11 15:04N 69°39' E 018°58'0 0.1
2017-Nov-11 15:00N 69°39' E 018°58'3 5.7
2017-Nov-11 14:30N 69°42' E 019°01'4 9.1
2017-Nov-11 14:00N 69°45' E 019°08'1121.5
2017-Nov-11 13:30N 69°50' E 019°37'919.1
2017-Nov-11 13:00N 69°55' E 019°60'1020.2
2017-Nov-11 12:30N 70°00' E 020°26'1020.9
2017-Nov-11 12:00N 70°04' E 020°55'5 8.1
2017-Nov-11 11:23N 70°02' E 021°08'1 3.6
2017-Nov-11 11:00N 70°02' E 021°04'3 6.3
2017-Nov-11 10:29N 70°03' E 020°56'1121.2
2017-Nov-11 09:59N 69°60' E 020°26'1020.7
2017-Nov-11 09:30N 69°55' E 020°01'1121.6
2017-Nov-11 09:00N 69°49' E 019°33'1122.0
2017-Nov-11 08:30N 69°44' E 019°06'610.7
2017-Nov-11 07:56N 69°39' E 018°58'0 0.0
2017-Nov-10 14:40N 69°39' E 018°58'1 4.1
2017-Nov-10 14:29N 69°39' E 018°59'2 4.7
2017-Nov-10 14:00N 69°42' E 019°01'918.4
2017-Nov-10 13:30N 69°48' E 019°21'1121.2
2017-Nov-10 13:00N 69°53' E 019°49'1021.2
2017-Nov-10 12:30N 69°58' E 020°14'918.8
2017-Nov-10 12:00N 70°02' E 020°40'814.6
2017-Nov-10 11:29N 70°02' E 021°02'0 0.8
2017-Nov-10 10:56N 70°02' E 021°03'6 8.2
2017-Nov-10 10:15N 69°57' E 020°57'519.6
2017-Nov-10 10:00N 69°56' E 020°44'1121.1
2017-Nov-10 09:30N 69°58' E 020°14'1121.9
2017-Nov-10 09:00N 69°52' E 019°48'1122.1
2017-Nov-10 08:29N 69°47' E 019°18'1021.1
2017-Nov-10 08:00N 69°39' E 018°59'1 0.0
2017-Nov-08 14:12N 69°39' E 018°58'3 5.0
2017-Nov-08 13:37N 69°42' E 019°01'0 0.3
2017-Nov-08 13:30N 69°42' E 019°01'  
Track history (hours):
 
Tides and Currents Weather Stations Pressure Air Temp Water Temp Dewpoint Dewpoint Depression Visibility Wind Speed Wind Dir Waves Ship Positions

Arctic Queen

Last reported at 2017-Nov-16 09:05 UTC. Time now 2017-Dec-14 06:31 UTC.
Position N 70°01' E 020°31'.
Warning: this ship's position is 27 days out of date.

Length 12 m.

Type: Pleasure craft. MMSI: 257029390.

Date/timePositionNaut miles runAvg speedWind from/ knotsBaromVisibWave heightAir tempDewpointWater temp
2017-Nov-16 09:05N 70°01' E 020°31'122.0
2017-Nov-16 09:00N 70°00' E 020°27'1121.4
2017-Nov-16 08:31N 69°55' E 019°59'1121.6
2017-Nov-16 07:59N 69°49' E 019°32'1021.5
2017-Nov-16 07:30N 69°44' E 019°06'6 0.6
2017-Nov-15 21:42N 69°39' E 018°58'0 2.1
2017-Nov-15 21:30N 69°39' E 018°59'3 6.5
2017-Nov-15 21:00N 69°42' E 019°02'2 3.7
2017-Nov-15 20:28N 69°44' E 019°04'0 1.0
2017-Nov-15 20:00N 69°44' E 019°05'1 2.8
2017-Nov-15 19:31N 69°42' E 019°04'2 2.9
2017-Nov-15 19:00N 69°41' E 019°02'2 3.3
2017-Nov-15 18:29N 69°40' E 018°60'1 1.8
2017-Nov-15 18:00N 69°39' E 018°58'0 0.0
2017-Nov-15 12:27N 69°39' E 018°58'3 5.8
2017-Nov-15 12:00N 69°37' E 018°52'2 3.8
2017-Nov-15 11:30N 69°39' E 018°49'1 1.7
2017-Nov-15 10:58N 69°39' E 018°46'2 3.4
2017-Nov-15 10:30N 69°39' E 018°50'2 3.3
2017-Nov-15 10:00N 69°40' E 018°46'4 8.4
2017-Nov-15 09:30N 69°38' E 018°55'2 2.9
2017-Nov-15 08:58N 69°39' E 018°58'0 0.0
2017-Nov-14 13:19N 69°39' E 018°58'3 9.2
2017-Nov-14 13:00N 69°42' E 019°01'510.4
2017-Nov-14 12:30N 69°47' E 019°03'7 6.2
2017-Nov-14 11:27N 69°52' E 018°52'4 8.6
2017-Nov-14 10:58N 69°54' E 018°41'0 0.0
2017-Nov-14 10:28N 69°54' E 018°41'0 0.0
2017-Nov-14 09:57N 69°54' E 018°41'0 1.1
2017-Nov-14 09:30N 69°53' E 018°41'611.2
2017-Nov-14 09:00N 69°51' E 018°55'917.1
2017-Nov-14 08:29N 69°42' E 019°02'4 7.3
2017-Nov-14 07:59N 69°39' E 018°58'0 0.0
2017-Nov-12 14:21N 69°39' E 018°58'3 8.0
2017-Nov-12 13:59N 69°42' E 019°01'2 4.4
2017-Nov-12 13:30N 69°44' E 019°04'1020.6
2017-Nov-12 13:00N 69°49' E 019°29'1121.1
2017-Nov-12 12:30N 69°54' E 019°56'1021.1
2017-Nov-12 12:00N 69°60' E 020°22'1121.2
2017-Nov-12 11:29N 70°03' E 020°52'5 8.8
2017-Nov-12 10:54N 70°00' E 021°04'1 3.6
2017-Nov-12 10:30N 70°01' E 021°03'4 8.0
2017-Nov-12 10:00N 70°03' E 020°53'1121.0
2017-Nov-12 09:29N 69°60' E 020°23'1021.1
2017-Nov-12 09:00N 69°55' E 019°57'1121.5
2017-Nov-12 08:29N 69°49' E 019°29'1021.3
2017-Nov-12 08:00N 69°43' E 019°04'5 9.6
2017-Nov-12 07:29N 69°39' E 018°58'0 0.0
2017-Nov-11 15:04N 69°39' E 018°58'0 0.1
2017-Nov-11 15:00N 69°39' E 018°58'3 5.7
2017-Nov-11 14:30N 69°42' E 019°01'4 9.1
2017-Nov-11 14:00N 69°45' E 019°08'1121.5
2017-Nov-11 13:30N 69°50' E 019°37'919.1
2017-Nov-11 13:00N 69°55' E 019°60'1020.2
2017-Nov-11 12:30N 70°00' E 020°26'1020.9
2017-Nov-11 12:00N 70°04' E 020°55'5 8.1
2017-Nov-11 11:23N 70°02' E 021°08'1 3.6
2017-Nov-11 11:00N 70°02' E 021°04'3 6.3
2017-Nov-11 10:29N 70°03' E 020°56'1121.2
2017-Nov-11 09:59N 69°60' E 020°26'1020.7
2017-Nov-11 09:30N 69°55' E 020°01'1121.6
2017-Nov-11 09:00N 69°49' E 019°33'1122.0
2017-Nov-11 08:30N 69°44' E 019°06'610.7
2017-Nov-11 07:56N 69°39' E 018°58'0 0.0
2017-Nov-10 14:40N 69°39' E 018°58'1 4.1
2017-Nov-10 14:29N 69°39' E 018°59'2 4.7
2017-Nov-10 14:00N 69°42' E 019°01'918.4
2017-Nov-10 13:30N 69°48' E 019°21'1121.2
2017-Nov-10 13:00N 69°53' E 019°49'1021.2
2017-Nov-10 12:30N 69°58' E 020°14'918.8
2017-Nov-10 12:00N 70°02' E 020°40'814.6
2017-Nov-10 11:29N 70°02' E 021°02'0 0.8
2017-Nov-10 10:56N 70°02' E 021°03'6 8.2
2017-Nov-10 10:15N 69°57' E 020°57'519.6
2017-Nov-10 10:00N 69°56' E 020°44'1121.1
2017-Nov-10 09:30N 69°58' E 020°14'1121.9
2017-Nov-10 09:00N 69°52' E 019°48'1122.1
2017-Nov-10 08:29N 69°47' E 019°18'1021.1
2017-Nov-10 08:00N 69°39' E 018°59'1 0.0
2017-Nov-08 14:12N 69°39' E 018°58'3 5.0
2017-Nov-08 13:37N 69°42' E 019°01'0 0.3
2017-Nov-08 13:30N 69°42' E 019°01'  

Dump ship's entire track history